createdAt,value
2019-05-16T00:01:48.642Z,22.30
2019-05-16T00:04:17.878Z,22.40
2019-05-16T00:06:45.279Z,22.40
2019-05-16T00:09:12.846Z,22.40
2019-05-16T00:11:40.446Z,22.30
2019-05-16T00:14:08.475Z,22.30
2019-05-16T00:16:38.049Z,22.10
2019-05-16T00:19:05.568Z,22.40
2019-05-16T00:21:33.120Z,22.40
2019-05-16T00:24:00.914Z,22.40
2019-05-16T00:26:28.571Z,22.30
2019-05-16T00:28:56.132Z,22.10
2019-05-16T00:31:23.814Z,22.20
2019-05-16T00:33:51.455Z,22.20
2019-05-16T00:36:19.141Z,22.20
2019-05-16T00:38:48.527Z,22.20
2019-05-16T00:41:17.940Z,22.10
2019-05-16T00:43:45.659Z,22.20
2019-05-16T00:46:13.365Z,22.30
2019-05-16T00:48:40.924Z,22.30
2019-05-16T00:51:08.520Z,22.20
2019-05-16T00:53:38.091Z,22.20
2019-05-16T00:56:07.785Z,22.30
2019-05-16T00:58:34.806Z,22.20
2019-05-16T01:01:02.447Z,22.10
2019-05-16T01:03:30.005Z,22.30
2019-05-16T01:05:58.228Z,22.10
2019-05-16T01:08:28.138Z,22.30
2019-05-16T01:10:55.427Z,22.30
2019-05-16T01:13:23.095Z,22.20
2019-05-16T01:15:50.711Z,22.80
2019-05-16T01:18:18.663Z,22.30
2019-05-16T01:20:48.081Z,22.20
2019-05-16T01:23:17.994Z,22.20
2019-05-16T01:25:45.318Z,22.30
2019-05-16T01:28:12.912Z,22.30
2019-05-16T01:30:40.525Z,22.30
2019-05-16T01:33:08.867Z,22.20
2019-05-16T01:35:38.571Z,22.00
2019-05-16T01:38:05.912Z,22.20
2019-05-16T01:40:33.478Z,22.20
2019-05-16T01:43:01.098Z,22.10
2019-05-16T01:45:28.691Z,22.10
2019-05-16T01:47:58.612Z,22.10
2019-05-16T01:50:25.589Z,22.10
2019-05-16T01:52:53.193Z,22.10
2019-05-16T01:55:20.773Z,22.00
2019-05-16T01:57:48.343Z,22.70
2019-05-16T02:00:15.951Z,22.20
2019-05-16T02:02:43.574Z,22.10
2019-05-16T02:05:11.461Z,22.30
2019-05-16T02:07:39.053Z,22.00
2019-05-16T02:10:08.560Z,22.10
2019-05-16T02:12:38.443Z,22.10
2019-05-16T02:15:07.739Z,22.30
2019-05-16T02:17:35.015Z,22.00
2019-05-16T02:20:02.881Z,22.00
2019-05-16T02:22:30.445Z,22.10
2019-05-16T02:24:58.521Z,21.90
2019-05-16T02:27:28.555Z,22.00
2019-05-16T02:29:55.571Z,22.10
2019-05-16T02:32:23.248Z,22.20
2019-05-16T02:34:51.454Z,22.80
2019-05-16T02:37:28.306Z,22.70
2019-05-16T02:39:51.425Z,22.10
2019-05-16T02:42:20.976Z,22.00
2019-05-16T02:44:47.150Z,22.10
2019-05-16T02:47:14.752Z,22.10
2019-05-16T02:49:42.374Z,22.00
2019-05-16T02:52:10.910Z,22.00
2019-05-16T02:54:41.238Z,22.00
2019-05-16T02:57:11.156Z,21.90
2019-05-16T02:59:37.614Z,22.10
2019-05-16T03:02:05.190Z,22.10
2019-05-16T03:04:32.787Z,22.00
2019-05-16T03:07:00.882Z,22.10
2019-05-16T03:09:30.501Z,22.00
2019-05-16T03:12:01.068Z,22.00
2019-05-16T03:14:27.724Z,21.70
2019-05-16T03:16:57.004Z,22.00
2019-05-16T03:19:25.376Z,22.00
2019-05-16T03:21:52.926Z,22.00
2019-05-16T03:24:20.711Z,22.10
2019-05-16T03:26:51.269Z,22.00
2019-05-16T03:29:17.703Z,22.10
2019-05-16T03:31:45.670Z,22.10
2019-05-16T03:34:15.932Z,22.00
2019-05-16T03:36:44.089Z,22.10
2019-05-16T03:39:12.094Z,22.00
2019-05-16T03:41:41.447Z,22.10
2019-05-16T03:44:11.286Z,22.00
2019-05-16T03:46:41.350Z,22.00
2019-05-16T03:49:11.072Z,22.00
2019-05-16T03:51:37.025Z,22.10
2019-05-16T03:54:04.632Z,22.10
2019-05-16T03:56:32.233Z,21.90
2019-05-16T03:59:01.211Z,22.00
2019-05-16T04:01:31.257Z,22.10
2019-05-16T04:04:01.407Z,22.10
2019-05-16T04:06:30.967Z,22.00
2019-05-16T04:08:56.939Z,22.00
2019-05-16T04:11:24.490Z,22.00
2019-05-16T04:13:52.082Z,21.90
2019-05-16T04:16:20.895Z,21.90
2019-05-16T04:18:51.414Z,22.00
2019-05-16T04:21:21.626Z,22.00
2019-05-16T04:23:50.386Z,22.20
2019-05-16T04:26:16.583Z,22.00
2019-05-16T04:28:44.186Z,21.80
2019-05-16T04:31:11.769Z,21.80
2019-05-16T04:33:41.565Z,21.80
2019-05-16T04:36:10.975Z,21.60
2019-05-16T04:38:45.124Z,22.20
2019-05-16T04:41:07.396Z,22.10
2019-05-16T04:43:35.001Z,22.20
2019-05-16T04:46:02.612Z,22.30
2019-05-16T04:48:31.081Z,22.00
2019-05-16T04:51:01.301Z,21.90
2019-05-16T04:53:31.314Z,22.00
2019-05-16T04:55:57.732Z,22.10
2019-05-16T04:58:25.347Z,22.20
2019-05-16T05:00:53.021Z,22.20
2019-05-16T05:03:21.300Z,22.20
2019-05-16T05:05:51.491Z,22.30
2019-05-16T05:08:21.395Z,22.30
2019-05-16T05:10:47.526Z,22.40
2019-05-16T05:13:15.129Z,22.30
2019-05-16T05:15:42.708Z,22.30
2019-05-16T05:18:10.344Z,22.40
2019-05-16T05:20:40.829Z,22.40
2019-05-16T05:23:07.328Z,22.60
2019-05-16T05:25:34.887Z,22.50
2019-05-16T05:28:02.486Z,23.50
2019-05-16T05:30:30.414Z,23.70
2019-05-16T05:32:58.057Z,24.70
2019-05-16T05:35:25.647Z,24.70
2019-05-16T05:37:53.346Z,24.70
2019-05-16T05:40:21.157Z,24.70
2019-05-16T05:42:50.447Z,24.80
2019-05-16T05:45:20.097Z,24.80
2019-05-16T05:47:47.360Z,24.90
2019-05-16T05:50:14.905Z,24.80
2019-05-16T05:52:45.753Z,24.80
2019-05-16T05:55:11.808Z,24.80
2019-05-16T05:57:40.358Z,24.90
2019-05-16T06:00:09.917Z,25.00
2019-05-16T06:02:39.961Z,25.00
2019-05-16T06:05:07.554Z,25.00
2019-05-16T06:07:35.107Z,25.00
2019-05-16T06:10:03.731Z,25.00
2019-05-16T06:12:31.302Z,25.00
2019-05-16T06:15:08.510Z,25.00
2019-05-16T06:17:30.564Z,25.40
2019-05-16T06:19:57.493Z,25.30
2019-05-16T06:22:25.061Z,25.90
2019-05-16T06:24:52.621Z,24.90
2019-05-16T06:27:20.894Z,24.90
2019-05-16T06:29:49.734Z,24.90
2019-05-16T06:32:19.656Z,24.90
2019-05-16T06:34:46.841Z,24.80
2019-05-16T06:37:14.444Z,24.80
2019-05-16T06:39:45.312Z,24.80
2019-05-16T06:42:11.362Z,24.80
2019-05-16T06:44:40.155Z,24.80
2019-05-16T06:47:16.848Z,24.80
2019-05-16T06:49:37.326Z,24.80
2019-05-16T06:52:04.905Z,24.40
2019-05-16T06:54:32.511Z,24.70
2019-05-16T06:57:00.337Z,24.30
2019-05-16T06:59:29.800Z,24.60
2019-05-16T07:01:57.482Z,24.20
2019-05-16T07:04:25.100Z,24.20
2019-05-16T07:06:58.911Z,23.60
2019-05-16T07:09:22.015Z,23.50
2019-05-16T07:11:50.462Z,23.60
2019-05-16T07:14:22.532Z,23.20
2019-05-16T07:16:49.625Z,23.40
2019-05-16T07:19:16.908Z,23.60
2019-05-16T07:21:44.523Z,23.30
2019-05-16T07:24:12.095Z,22.70
2019-05-16T07:26:40.507Z,23.00
2019-05-16T07:29:10.776Z,23.00
2019-05-16T07:31:37.658Z,22.80
2019-05-16T07:34:05.281Z,23.20
2019-05-16T07:36:32.915Z,23.30
2019-05-16T07:39:00.650Z,22.90
2019-05-16T07:41:30.879Z,22.10
2019-05-16T07:43:57.527Z,22.50
2019-05-16T07:46:25.119Z,22.10
2019-05-16T07:48:52.705Z,22.10
2019-05-16T07:51:20.620Z,22.30
2019-05-16T07:53:50.385Z,21.80
2019-05-16T07:56:20.197Z,22.00
2019-05-16T07:58:46.977Z,22.30
2019-05-16T08:01:14.608Z,22.20
2019-05-16T08:03:44.083Z,21.90
2019-05-16T08:06:11.499Z,22.30
2019-05-16T08:08:40.336Z,22.30
2019-05-16T08:11:08.106Z,22.30
2019-05-16T08:13:35.669Z,22.80
2019-05-16T08:16:03.248Z,22.60
2019-05-16T08:18:30.839Z,22.60
2019-05-16T08:21:00.711Z,22.70
2019-05-16T08:23:29.766Z,22.60
2019-05-16T08:25:57.252Z,22.50
2019-05-16T08:28:24.837Z,22.80
2019-05-16T08:30:53.005Z,22.60
2019-05-16T08:33:22.028Z,22.50
2019-05-16T08:35:51.520Z,22.70
2019-05-16T08:43:21.369Z,22.60
2019-05-16T08:45:47.262Z,22.60
2019-05-16T08:48:14.812Z,22.60
2019-05-16T08:50:08.651Z,22.50
2019-05-16T08:50:50.365Z,22.50
2019-05-16T08:53:12.885Z,22.30
2019-05-16T08:55:43.345Z,22.70
2019-05-16T08:58:13.531Z,22.70
2019-05-16T09:00:41.895Z,22.80
2019-05-16T09:03:12.078Z,22.50
2019-05-16T09:05:42.613Z,22.30
2019-05-16T09:08:07.863Z,22.40
2019-05-16T09:10:39.232Z,22.50
2019-05-16T09:10:49.861Z,22.30
2019-05-16T09:13:07.165Z,22.30
2019-05-16T09:15:34.084Z,22.30
2019-05-16T09:18:01.638Z,22.30
2019-05-16T09:20:29.213Z,22.50
2019-05-16T09:22:57.888Z,22.40
2019-05-16T09:25:27.456Z,22.20
2019-05-16T09:27:56.948Z,22.40
2019-05-16T09:30:24.298Z,22.30
2019-05-16T09:32:51.900Z,22.30
2019-05-16T09:35:19.486Z,22.30
2019-05-16T09:37:47.509Z,22.40
2019-05-16T09:40:17.237Z,22.60
2019-05-16T09:42:47.155Z,22.50
2019-05-16T09:45:16.980Z,21.90
2019-05-16T09:47:43.765Z,22.40
2019-05-16T09:50:11.365Z,22.30
2019-05-16T09:52:38.948Z,22.30
2019-05-16T09:55:07.058Z,22.30
2019-05-16T09:57:37.325Z,22.20
2019-05-16T10:00:08.893Z,22.20
2019-05-16T10:02:36.844Z,22.30
2019-05-16T10:05:12.399Z,22.30
2019-05-16T10:07:34.244Z,22.30
2019-05-16T10:10:01.824Z,22.30
2019-05-16T10:12:29.417Z,22.30
2019-05-16T10:14:59.546Z,22.00
2019-05-16T10:17:27.301Z,22.10
2019-05-16T10:19:56.489Z,22.10
2019-05-16T10:22:24.303Z,22.00
2019-05-16T10:24:51.907Z,22.20
2019-05-16T10:27:19.501Z,22.00
2019-05-16T10:29:48.533Z,22.10
2019-05-16T10:32:16.780Z,22.10
2019-05-16T10:34:46.547Z,22.60
2019-05-16T10:37:13.910Z,22.70
2019-05-16T10:39:41.579Z,22.70
2019-05-16T10:42:23.456Z,22.70
2019-05-16T10:44:38.959Z,22.70
2019-05-16T10:47:07.537Z,22.40
2019-05-16T10:49:38.794Z,22.50
2019-05-16T10:52:07.224Z,22.40
2019-05-16T10:54:36.813Z,22.40
2019-05-16T10:57:03.895Z,22.50
2019-05-16T10:59:57.768Z,22.50
2019-05-16T11:02:00.880Z,22.80
2019-05-16T11:04:42.121Z,23.00
2019-05-16T11:06:57.731Z,23.00
2019-05-16T11:09:25.331Z,23.00
2019-05-16T11:11:52.881Z,22.90
2019-05-16T11:14:20.471Z,23.30
2019-05-16T11:16:48.040Z,23.20
2019-05-16T11:19:21.249Z,23.20
2019-05-16T11:21:46.869Z,23.10
2019-05-16T11:24:14.493Z,23.20
2019-05-16T11:26:42.091Z,23.20
2019-05-16T11:29:09.711Z,23.20
2019-05-16T11:31:37.397Z,23.20
2019-05-16T11:34:05.005Z,23.20
2019-05-16T11:36:32.577Z,23.40
2019-05-16T11:39:01.945Z,23.30
2019-05-16T11:41:29.499Z,23.10
2019-05-16T11:43:57.180Z,23.30
2019-05-16T11:46:27.891Z,23.30
2019-05-16T11:48:54.077Z,23.40
2019-05-16T11:51:21.709Z,23.30
2019-05-16T11:53:49.284Z,23.50
2019-05-16T11:56:16.891Z,23.40
2019-05-16T11:58:44.443Z,23.50
2019-05-16T12:01:12.048Z,23.50
2019-05-16T12:03:39.681Z,23.60
2019-05-16T12:06:10.266Z,23.80
2019-05-16T12:08:37.082Z,23.80
2019-05-16T12:11:06.918Z,24.70
2019-05-16T12:13:36.660Z,24.00
2019-05-16T12:16:03.517Z,24.00
2019-05-16T12:18:31.089Z,24.00
2019-05-16T12:20:58.651Z,24.00
2019-05-16T12:23:27.574Z,24.10
2019-05-16T12:25:56.587Z,24.10
2019-05-16T12:28:24.516Z,24.20
2019-05-16T12:30:52.089Z,24.30
2019-05-16T12:33:19.681Z,24.50
2019-05-16T12:35:47.574Z,24.60
2019-05-16T12:38:17.024Z,24.60
2019-05-16T12:40:47.596Z,24.80
2019-05-16T12:43:13.908Z,24.80
2019-05-16T12:45:41.533Z,24.50
2019-05-16T12:48:09.209Z,24.70
2019-05-16T12:50:38.889Z,24.70
2019-05-16T12:53:08.069Z,24.80
2019-05-16T12:55:36.835Z,24.70
2019-05-16T12:58:12.440Z,24.70
2019-05-16T13:00:33.954Z,24.70
2019-05-16T13:03:01.604Z,24.70
2019-05-16T13:05:29.204Z,24.70
2019-05-16T13:07:56.795Z,24.70
2019-05-16T13:10:26.823Z,24.70
2019-05-16T13:12:53.669Z,24.70
2019-05-16T13:15:21.293Z,24.70
2019-05-16T13:17:48.866Z,24.70
2019-05-16T13:20:17.302Z,24.70
2019-05-16T13:22:47.353Z,24.70
2019-05-16T13:25:14.491Z,24.70
2019-05-16T13:27:42.110Z,24.70
2019-05-16T13:30:09.756Z,24.70
2019-05-16T13:32:37.623Z,24.70
2019-05-16T13:35:07.718Z,24.90
2019-05-16T13:37:34.709Z,25.50
2019-05-16T13:40:02.347Z,25.00
2019-05-16T13:42:29.957Z,24.80
2019-05-16T13:44:58.030Z,25.30
2019-05-16T13:47:26.856Z,25.80
2019-05-16T13:49:54.628Z,25.50
2019-05-16T13:52:22.288Z,24.50
2019-05-16T13:54:49.922Z,25.30
2019-05-16T13:57:17.525Z,25.70
2019-05-16T13:59:45.206Z,25.70
2019-05-16T14:02:12.792Z,25.20
2019-05-16T14:04:40.392Z,25.20
2019-05-16T14:07:07.954Z,25.20
2019-05-16T14:09:37.756Z,25.20
2019-05-16T14:12:06.763Z,24.70
2019-05-16T14:14:38.984Z,24.60
2019-05-16T14:17:03.626Z,24.30
2019-05-16T14:19:31.194Z,24.80
2019-05-16T14:21:58.781Z,24.50
2019-05-16T14:24:28.139Z,24.30
2019-05-16T14:26:57.351Z,24.40
2019-05-16T14:29:27.751Z,24.40
2019-05-16T14:31:56.606Z,24.30
2019-05-16T14:34:23.661Z,24.30
2019-05-16T14:36:51.191Z,24.40
2019-05-16T14:39:19.851Z,25.00
2019-05-16T14:41:47.578Z,27.00
2019-05-16T14:44:18.013Z,26.50
2019-05-16T14:46:47.285Z,25.80
2019-05-16T14:49:13.866Z,26.90
2019-05-16T14:51:41.694Z,26.80
2019-05-16T14:54:09.312Z,26.50
2019-05-16T14:56:38.646Z,26.10
2019-05-16T14:59:08.218Z,26.40
2019-05-16T15:01:37.716Z,26.70
2019-05-16T15:04:07.385Z,26.80
2019-05-16T15:06:37.295Z,26.80
2019-05-16T15:09:07.487Z,27.50
2019-05-16T15:11:34.843Z,27.40
2019-05-16T15:14:02.440Z,27.00
2019-05-16T15:16:30.050Z,26.90
2019-05-16T15:18:57.712Z,26.70
2019-05-16T15:21:25.366Z,26.50
2019-05-16T15:23:52.919Z,26.80
2019-05-16T15:26:20.558Z,26.50
2019-05-16T15:28:51.143Z,26.50
2019-05-16T15:31:17.595Z,26.40
2019-05-16T15:33:47.454Z,26.40
2019-05-16T15:36:16.743Z,26.50
2019-05-16T15:38:43.836Z,26.20
2019-05-16T15:41:11.392Z,26.30
2019-05-16T15:43:39.013Z,26.30
2019-05-16T15:46:08.103Z,26.70
2019-05-16T15:48:37.063Z,26.60
2019-05-16T15:51:07.934Z,26.50
2019-05-16T15:53:36.232Z,26.90
2019-05-16T15:56:03.721Z,26.10
2019-05-16T15:58:31.326Z,26.10
2019-05-16T16:00:58.958Z,26.70
2019-05-16T16:03:27.296Z,26.60
2019-05-16T16:05:55.272Z,26.20
2019-05-16T16:08:22.875Z,26.40
2019-05-16T16:10:50.489Z,26.20
2019-05-16T16:13:19.961Z,26.40
2019-05-16T16:15:53.274Z,26.20
2019-05-16T16:18:19.560Z,26.30
2019-05-16T16:20:47.831Z,25.80
2019-05-16T16:23:17.837Z,26.00
2019-05-16T16:25:49.741Z,26.30
2019-05-16T16:28:14.281Z,26.00
2019-05-16T16:30:41.861Z,26.60
2019-05-16T16:33:21.391Z,27.10
2019-05-16T16:35:38.803Z,27.00
2019-05-16T16:38:07.014Z,26.80
2019-05-16T16:40:37.512Z,27.40
2019-05-16T16:43:04.501Z,27.10
2019-05-16T16:45:32.121Z,27.80
2019-05-16T16:47:59.703Z,29.50
2019-05-16T16:50:27.286Z,29.10
2019-05-16T16:52:56.559Z,29.50
2019-05-16T16:55:24.316Z,29.50
2019-05-16T16:57:55.731Z,28.80
2019-05-16T17:00:21.289Z,27.80
2019-05-16T17:03:02.262Z,27.80
2019-05-16T17:05:18.342Z,27.80
2019-05-16T17:07:48.518Z,27.20
2019-05-16T17:10:15.213Z,27.20
2019-05-16T17:12:42.845Z,27.20
2019-05-16T17:15:10.671Z,27.30
2019-05-16T17:17:38.386Z,26.70
2019-05-16T17:20:09.006Z,26.50
2019-05-16T17:22:37.667Z,25.70
2019-05-16T17:25:07.236Z,25.60
2019-05-16T17:27:37.333Z,25.50
2019-05-16T17:30:07.268Z,25.40
2019-05-16T17:32:34.948Z,25.60
2019-05-16T17:35:02.712Z,25.90
2019-05-16T17:37:30.306Z,26.00
2019-05-16T17:39:57.913Z,25.70
2019-05-16T17:42:27.174Z,24.90
2019-05-16T17:44:56.602Z,25.30
2019-05-16T17:47:26.174Z,36.70
2019-05-16T17:49:53.724Z,29.80
2019-05-16T17:52:21.347Z,29.80
2019-05-16T17:54:48.937Z,28.00
2019-05-16T17:57:17.106Z,28.70
2019-05-16T17:59:44.801Z,27.80
2019-05-16T18:02:12.423Z,27.70
2019-05-16T18:04:41.171Z,27.90
2019-05-16T18:07:08.981Z,27.10
2019-05-16T18:09:36.877Z,26.60
2019-05-16T18:12:06.718Z,26.50
2019-05-16T18:14:34.005Z,26.80
2019-05-16T18:17:02.260Z,26.50
2019-05-16T18:19:29.972Z,26.70
2019-05-16T18:21:57.557Z,26.60
2019-05-16T18:24:27.338Z,27.10
2019-05-16T18:26:57.023Z,27.30
2019-05-16T18:29:24.061Z,27.00
2019-05-16T18:31:51.794Z,27.00
2019-05-16T18:34:19.440Z,26.80
2019-05-16T18:36:47.012Z,26.80
2019-05-16T18:39:14.628Z,27.00
2019-05-16T18:41:42.252Z,27.10
2019-05-16T18:44:09.862Z,27.00
2019-05-16T18:46:37.441Z,26.90
2019-05-16T18:49:07.074Z,26.70
2019-05-16T18:51:34.423Z,26.80
2019-05-16T18:54:02.029Z,26.60
2019-05-16T18:56:31.670Z,26.70
2019-05-16T18:58:59.658Z,27.00
2019-05-16T19:01:27.217Z,26.60
2019-05-16T19:03:57.165Z,26.80
2019-05-16T19:06:24.094Z,26.80
2019-05-16T19:08:51.706Z,26.70
2019-05-16T19:11:19.290Z,26.60
2019-05-16T19:13:47.512Z,26.60
2019-05-16T19:16:17.000Z,26.80
2019-05-16T19:18:44.697Z,26.70
2019-05-16T19:21:12.303Z,26.70
2019-05-16T19:23:39.885Z,26.80
2019-05-16T19:26:07.559Z,26.80
2019-05-16T19:28:37.357Z,26.70
2019-05-16T19:31:06.587Z,26.70
2019-05-16T19:33:33.978Z,27.00
2019-05-16T19:36:01.539Z,27.10
2019-05-16T19:38:29.551Z,26.80
2019-05-16T19:40:57.728Z,26.80
2019-05-16T19:43:26.521Z,26.90
2019-05-16T19:45:54.181Z,26.80
2019-05-16T19:48:21.835Z,26.60
2019-05-16T19:50:49.385Z,26.80
2019-05-16T19:53:16.976Z,26.60
2019-05-16T19:55:46.876Z,26.80
2019-05-16T19:58:13.868Z,26.80
2019-05-16T20:00:41.451Z,26.40
2019-05-16T20:03:09.055Z,26.40
2019-05-16T20:05:37.463Z,26.40
2019-05-16T20:08:06.626Z,26.40
2019-05-16T20:10:36.415Z,26.50
2019-05-16T20:13:03.807Z,26.80
2019-05-16T20:15:31.384Z,26.20
2019-05-16T20:17:59.013Z,26.20
2019-05-16T20:20:27.516Z,26.40
2019-05-16T20:22:56.618Z,26.30
2019-05-16T20:25:26.724Z,26.20
2019-05-16T20:27:53.714Z,26.30
2019-05-16T20:30:21.358Z,26.30
2019-05-16T20:32:48.925Z,26.30
2019-05-16T20:35:17.492Z,26.40
2019-05-16T20:37:47.198Z,26.20
2019-05-16T20:40:17.132Z,26.30
2019-05-16T20:42:44.002Z,26.20
2019-05-16T20:45:11.606Z,26.00
2019-05-16T20:47:39.184Z,26.10
2019-05-16T20:50:07.725Z,26.10
2019-05-16T20:52:37.859Z,26.00
2019-05-16T20:55:07.239Z,26.20
2019-05-16T20:57:37.281Z,26.20
2019-05-16T21:00:06.773Z,26.00
2019-05-16T21:02:34.408Z,25.90
2019-05-16T21:05:02.010Z,26.10
2019-05-16T21:07:29.575Z,25.90
2019-05-16T21:09:59.048Z,26.10
2019-05-16T21:12:26.625Z,26.00
2019-05-16T21:14:58.338Z,25.50
2019-05-16T21:17:23.675Z,26.00
2019-05-16T21:19:51.249Z,26.00
2019-05-16T21:22:19.333Z,26.00
2019-05-16T21:24:47.200Z,26.30
2019-05-16T21:27:16.905Z,26.10
2019-05-16T21:29:44.108Z,26.10
2019-05-16T21:32:11.700Z,26.00
2019-05-16T21:34:39.375Z,26.20
2019-05-16T21:37:14.505Z,26.30
2019-05-16T21:39:36.938Z,26.20
2019-05-16T21:42:07.268Z,26.30
2019-05-16T21:44:33.928Z,26.20
2019-05-16T21:47:01.540Z,26.40
2019-05-16T21:49:29.362Z,26.40
2019-05-16T21:51:57.170Z,26.50
2019-05-16T21:54:28.655Z,26.30
2019-05-16T21:56:54.050Z,26.50
2019-05-16T21:59:21.735Z,26.50
2019-05-16T22:01:49.407Z,26.60
2019-05-16T22:04:17.035Z,26.50
2019-05-16T22:06:44.608Z,26.60
2019-05-16T22:09:12.208Z,26.60
2019-05-16T22:11:39.820Z,26.60
2019-05-16T22:14:07.779Z,26.90
2019-05-16T22:16:37.059Z,26.50
2019-05-16T22:19:06.942Z,27.00
2019-05-16T22:21:34.133Z,26.90
2019-05-16T22:24:01.710Z,26.70
2019-05-16T22:26:29.297Z,26.80
2019-05-16T22:28:57.482Z,26.90
2019-05-16T22:31:26.942Z,26.80
2019-05-16T22:33:54.658Z,26.80
2019-05-16T22:36:22.275Z,26.90
2019-05-16T22:38:49.819Z,26.90
2019-05-16T22:41:17.461Z,26.90
2019-05-16T22:43:46.681Z,27.10
2019-05-16T22:46:14.508Z,26.90
2019-05-16T22:48:42.191Z,26.90
2019-05-16T22:51:09.804Z,27.00
2019-05-16T22:53:37.375Z,27.00
2019-05-16T22:56:07.412Z,27.20
2019-05-16T22:58:35.063Z,27.10
2019-05-16T23:01:03.397Z,27.10
2019-05-16T23:03:31.003Z,27.20
2019-05-16T23:05:58.690Z,27.50
2019-05-16T23:08:27.179Z,27.10
2019-05-16T23:10:56.541Z,27.10
2019-05-16T23:13:26.410Z,27.10
2019-05-16T23:15:53.838Z,27.10
2019-05-16T23:18:21.407Z,27.20
2019-05-16T23:20:48.981Z,27.00
2019-05-16T23:23:17.440Z,27.30
2019-05-16T23:25:46.181Z,27.20
2019-05-16T23:28:13.933Z,27.30
2019-05-16T23:30:41.615Z,27.20
2019-05-16T23:33:09.201Z,27.20
2019-05-16T23:35:37.896Z,27.30
2019-05-16T23:38:18.086Z,27.40
2019-05-16T23:40:36.981Z,27.20
2019-05-16T23:43:04.276Z,27.10
2019-05-16T23:45:31.871Z,27.30
2019-05-16T23:47:59.443Z,27.40
2019-05-16T23:50:27.492Z,27.40
2019-05-16T23:52:56.339Z,27.20
2019-05-16T23:55:28.596Z,27.30
2019-05-16T23:57:57.139Z,27.20
